createdAt,value
2024-02-02T00:00:37.513Z,22.87
2024-02-02T00:01:37.434Z,22.89
2024-02-02T00:02:37.477Z,22.87
2024-02-02T00:03:37.572Z,22.90
2024-02-02T00:04:37.558Z,22.89
2024-02-02T00:05:37.477Z,22.89
2024-02-02T00:06:37.592Z,22.89
2024-02-02T00:07:37.582Z,22.89
2024-02-02T00:08:37.550Z,22.89
2024-02-02T00:09:37.630Z,22.90
2024-02-02T00:10:37.584Z,22.86
2024-02-02T00:11:37.593Z,22.90
2024-02-02T00:12:37.698Z,22.87
2024-02-02T00:13:37.614Z,22.89
2024-02-02T00:14:37.656Z,22.89
2024-02-02T00:15:37.723Z,22.87
2024-02-02T00:16:37.731Z,22.89
2024-02-02T00:17:37.724Z,22.89
2024-02-02T00:18:37.802Z,22.89
2024-02-02T00:19:37.910Z,22.90
2024-02-02T00:20:37.770Z,22.86
2024-02-02T00:21:37.806Z,22.87
2024-02-02T00:22:37.829Z,22.87
2024-02-02T00:23:37.820Z,22.86
2024-02-02T00:24:37.914Z,22.87
2024-02-02T00:25:37.886Z,22.89
2024-02-02T00:26:37.885Z,22.90
2024-02-02T00:27:37.940Z,22.86
2024-02-02T00:28:37.925Z,22.86
2024-02-02T00:29:37.961Z,22.86
2024-02-02T00:30:38.044Z,22.84
2024-02-02T00:31:38.033Z,22.86
2024-02-02T00:32:38.036Z,22.87
2024-02-02T00:33:38.291Z,22.84
2024-02-02T00:34:38.136Z,22.89
2024-02-02T00:35:38.056Z,22.86
2024-02-02T00:36:38.132Z,22.86
2024-02-02T00:37:38.096Z,22.89
2024-02-02T00:38:38.124Z,22.84
2024-02-02T00:39:38.222Z,22.86
2024-02-02T00:40:38.177Z,22.86
2024-02-02T00:41:38.195Z,22.89
2024-02-02T00:42:38.317Z,22.87
2024-02-02T00:43:38.231Z,22.89
2024-02-02T00:44:38.241Z,22.87
2024-02-02T00:45:38.360Z,22.86
2024-02-02T00:46:38.305Z,22.86
2024-02-02T00:47:38.330Z,22.89
2024-02-02T00:48:38.408Z,22.87
2024-02-02T00:49:38.496Z,22.86
2024-02-02T00:50:38.345Z,22.87
2024-02-02T00:51:38.419Z,22.87
2024-02-02T00:52:38.385Z,22.87
2024-02-02T00:53:38.401Z,22.87
2024-02-02T00:54:38.479Z,22.86
2024-02-02T00:55:38.457Z,22.86
2024-02-02T00:56:38.492Z,22.87
2024-02-02T00:57:38.630Z,22.86
2024-02-02T00:58:38.485Z,22.87
2024-02-02T00:59:38.508Z,22.86
2024-02-02T01:00:38.636Z,22.86
2024-02-02T01:01:38.564Z,22.84
2024-02-02T01:02:38.613Z,22.87
2024-02-02T01:03:38.802Z,22.83
2024-02-02T01:04:39.539Z,22.86
2024-02-02T01:05:38.640Z,22.83
2024-02-02T01:06:38.690Z,22.83
2024-02-02T01:07:38.654Z,22.83
2024-02-02T01:08:38.670Z,22.83
2024-02-02T01:09:38.722Z,22.83
2024-02-02T01:10:38.713Z,22.84
2024-02-02T01:11:38.718Z,22.83
2024-02-02T01:12:38.801Z,22.84
2024-02-02T01:13:38.749Z,22.81
2024-02-02T01:14:38.759Z,22.81
2024-02-02T01:15:38.820Z,22.83
2024-02-02T01:16:38.842Z,22.83
2024-02-02T01:17:38.866Z,22.81
2024-02-02T01:18:38.962Z,22.83
2024-02-02T01:19:38.882Z,22.83
2024-02-02T01:20:38.872Z,22.81
2024-02-02T01:21:39.630Z,22.83
2024-02-02T01:22:38.930Z,22.84
2024-02-02T01:23:39.006Z,22.84
2024-02-02T01:24:38.978Z,22.84
2024-02-02T01:25:38.988Z,22.81
2024-02-02T01:26:39.012Z,22.84
2024-02-02T01:27:39.024Z,22.86
2024-02-02T01:28:39.070Z,22.84
2024-02-02T01:29:39.078Z,22.83
2024-02-02T01:30:39.114Z,22.86
2024-02-02T01:31:39.140Z,22.86
2024-02-02T01:32:39.247Z,22.83
2024-02-02T01:33:39.231Z,22.84
2024-02-02T01:34:39.307Z,22.86
2024-02-02T01:35:39.226Z,22.86
2024-02-02T01:36:39.239Z,22.86
2024-02-02T01:37:39.250Z,22.84
2024-02-02T01:38:39.288Z,22.87
2024-02-02T01:39:39.284Z,22.83
2024-02-02T01:40:39.275Z,22.86
2024-02-02T01:41:39.320Z,22.83
2024-02-02T01:42:39.359Z,22.86
2024-02-02T01:43:39.360Z,22.87
2024-02-02T01:44:39.360Z,22.84
2024-02-02T01:45:39.419Z,22.84
2024-02-02T01:46:39.434Z,22.87
2024-02-02T01:47:39.470Z,22.84
2024-02-02T01:48:39.568Z,22.84
2024-02-02T01:49:39.568Z,22.86
2024-02-02T01:50:39.445Z,22.84
2024-02-02T01:51:39.481Z,22.84
2024-02-02T01:52:39.520Z,22.86
2024-02-02T01:53:39.534Z,22.86
2024-02-02T01:54:39.555Z,22.86
2024-02-02T01:55:39.560Z,22.81
2024-02-02T01:56:39.554Z,22.83
2024-02-02T01:57:39.588Z,22.81
2024-02-02T01:58:39.600Z,22.83
2024-02-02T01:59:39.605Z,22.83
2024-02-02T02:00:39.723Z,22.81
2024-02-02T02:01:39.655Z,22.83
2024-02-02T02:02:39.649Z,22.81
2024-02-02T02:03:39.756Z,22.83
2024-02-02T02:04:39.750Z,22.83
2024-02-02T02:05:39.812Z,22.83
2024-02-02T02:06:39.757Z,22.84
2024-02-02T02:07:39.767Z,22.83
2024-02-02T02:08:39.815Z,22.83
2024-02-02T02:09:39.839Z,22.80
2024-02-02T02:10:39.789Z,22.83
2024-02-02T02:11:39.821Z,22.83
2024-02-02T02:12:39.861Z,22.83
2024-02-02T02:13:39.824Z,22.80
2024-02-02T02:14:39.896Z,22.83
2024-02-02T02:15:39.917Z,22.81
2024-02-02T02:16:39.854Z,22.83
2024-02-02T02:17:40.139Z,22.83
2024-02-02T02:18:44.569Z,22.81
2024-02-02T02:19:41.036Z,22.83
2024-02-02T02:20:39.979Z,22.83
2024-02-02T02:21:39.916Z,22.80
2024-02-02T02:22:39.902Z,22.81
2024-02-02T02:23:39.953Z,22.81
2024-02-02T02:25:39.936Z,22.83
2024-02-02T02:26:39.927Z,22.83
2024-02-02T02:27:39.929Z,22.80
2024-02-02T02:28:39.921Z,22.80
2024-02-02T02:29:39.916Z,22.80
2024-02-02T02:30:39.971Z,22.81
2024-02-02T02:31:39.955Z,22.80
2024-02-02T02:32:40.058Z,22.78
2024-02-02T02:33:40.132Z,22.80
2024-02-02T02:34:40.060Z,22.81
2024-02-02T02:35:39.926Z,22.77
2024-02-02T02:36:39.934Z,22.78
2024-02-02T02:37:39.924Z,22.81
2024-02-02T02:38:39.937Z,22.80
2024-02-02T02:39:39.959Z,22.81
2024-02-02T02:40:39.942Z,22.78
2024-02-02T02:41:39.924Z,22.80
2024-02-02T02:42:40.023Z,22.78
2024-02-02T02:43:39.963Z,22.77
2024-02-02T02:44:39.928Z,22.77
2024-02-02T02:45:39.999Z,22.77
2024-02-02T02:46:39.940Z,22.78
2024-02-02T02:47:40.019Z,22.77
2024-02-02T02:48:40.063Z,22.77
2024-02-02T02:49:40.043Z,22.78
2024-02-02T02:50:39.955Z,22.77
2024-02-02T02:51:39.974Z,22.77
2024-02-02T02:52:39.946Z,22.78
2024-02-02T02:53:39.942Z,22.80
2024-02-02T02:54:39.949Z,22.78
2024-02-02T02:55:39.934Z,22.77
2024-02-02T02:56:39.947Z,22.78
2024-02-02T02:57:40.047Z,22.78
2024-02-02T02:58:39.971Z,22.81
2024-02-02T02:59:39.971Z,22.78
2024-02-02T03:00:40.042Z,22.77
2024-02-02T03:01:40.047Z,22.77
2024-02-02T03:02:40.105Z,22.75
2024-02-02T03:03:40.170Z,22.78
2024-02-02T03:04:40.136Z,22.77
2024-02-02T03:05:40.044Z,22.75
2024-02-02T03:06:40.202Z,22.77
2024-02-02T03:07:40.094Z,22.77
2024-02-02T03:08:40.096Z,22.74
2024-02-02T03:09:40.137Z,22.74
2024-02-02T03:10:40.170Z,22.73
2024-02-02T03:11:40.153Z,22.74
2024-02-02T03:12:40.265Z,22.75
2024-02-02T03:13:40.166Z,22.74
2024-02-02T03:14:40.215Z,22.75
2024-02-02T03:15:40.271Z,22.74
2024-02-02T03:16:40.251Z,22.75
2024-02-02T03:17:40.288Z,22.75
2024-02-02T03:18:42.959Z,22.74
2024-02-02T03:19:40.309Z,22.73
2024-02-02T03:20:40.252Z,22.74
2024-02-02T03:21:40.283Z,22.74
2024-02-02T03:22:40.287Z,22.75
2024-02-02T03:23:40.258Z,22.74
2024-02-02T03:24:40.341Z,22.75
2024-02-02T03:25:40.255Z,22.75
2024-02-02T03:26:40.285Z,22.75
2024-02-02T03:27:40.313Z,22.74
2024-02-02T03:28:40.309Z,22.75
2024-02-02T03:29:40.276Z,22.75
2024-02-02T03:30:40.345Z,22.77
2024-02-02T03:31:40.426Z,22.75
2024-02-02T03:32:40.350Z,22.77
2024-02-02T03:33:40.366Z,22.74
2024-02-02T03:34:40.344Z,22.75
2024-02-02T03:35:40.276Z,22.75
2024-02-02T03:36:40.271Z,22.75
2024-02-02T03:37:40.304Z,22.74
2024-02-02T03:38:40.307Z,22.74
2024-02-02T03:39:40.337Z,22.74
2024-02-02T03:40:40.276Z,22.74
2024-02-02T03:41:40.273Z,22.73
2024-02-02T03:42:40.319Z,22.73
2024-02-02T03:43:40.274Z,22.74
2024-02-02T03:44:40.299Z,22.74
2024-02-02T03:45:40.388Z,22.70
2024-02-02T03:46:40.293Z,22.71
2024-02-02T03:47:40.326Z,22.73
2024-02-02T03:48:40.393Z,22.73
2024-02-02T03:49:40.367Z,22.71
2024-02-02T03:50:40.289Z,22.71
2024-02-02T03:51:40.301Z,22.74
2024-02-02T03:52:40.305Z,22.71
2024-02-02T03:53:40.272Z,22.73
2024-02-02T03:54:40.340Z,22.73
2024-02-02T03:55:40.285Z,22.74
2024-02-02T03:56:40.273Z,22.73
2024-02-02T03:57:40.310Z,22.73
2024-02-02T03:58:40.284Z,22.71
2024-02-02T03:59:40.324Z,22.71
2024-02-02T04:00:40.364Z,22.73
2024-02-02T04:01:40.301Z,22.74
2024-02-02T04:02:40.378Z,22.73
2024-02-02T04:03:40.406Z,22.73
2024-02-02T04:04:40.327Z,22.73
2024-02-02T04:05:40.342Z,22.73
2024-02-02T04:06:40.308Z,22.75
2024-02-02T04:07:40.305Z,22.73
2024-02-02T04:08:42.362Z,22.73
2024-02-02T04:09:40.438Z,22.73
2024-02-02T04:10:40.296Z,22.74
2024-02-02T04:11:40.311Z,22.73
2024-02-02T04:12:40.344Z,22.73
2024-02-02T04:13:40.289Z,22.74
2024-02-02T04:14:40.297Z,22.74
2024-02-02T04:15:40.393Z,22.73
2024-02-02T04:16:40.332Z,22.73
2024-02-02T04:17:40.338Z,22.73
2024-02-02T04:18:40.438Z,22.71
2024-02-02T04:19:40.426Z,22.73
2024-02-02T04:20:47.606Z,22.70
2024-02-02T04:21:47.613Z,22.70
2024-02-02T04:22:47.621Z,22.71
2024-02-02T04:23:47.625Z,22.73
2024-02-02T04:24:47.610Z,22.71
2024-02-02T04:25:47.633Z,22.71
2024-02-02T04:26:47.626Z,22.70
2024-02-02T04:27:47.641Z,22.71
2024-02-02T04:28:47.654Z,22.71
2024-02-02T04:29:47.622Z,22.71
2024-02-02T04:30:47.638Z,22.73
2024-02-02T04:31:54.908Z,22.67
2024-02-02T04:32:54.982Z,22.70
2024-02-02T04:33:54.894Z,22.71
2024-02-02T04:34:54.846Z,22.71
2024-02-02T04:35:54.839Z,22.71
2024-02-02T04:36:54.824Z,22.70
2024-02-02T04:37:54.831Z,22.71
2024-02-02T04:38:54.820Z,22.71
2024-02-02T04:39:54.852Z,22.70
2024-02-02T04:40:54.837Z,22.70
2024-02-02T04:41:54.855Z,22.71
2024-02-02T04:42:54.835Z,22.71
2024-02-02T04:43:54.829Z,22.73
2024-02-02T04:44:54.871Z,22.74
2024-02-02T04:45:54.833Z,22.73
2024-02-02T04:46:54.844Z,22.73
2024-02-02T04:47:55.048Z,22.71
2024-02-02T04:48:55.100Z,22.70
2024-02-02T04:49:54.913Z,22.71
2024-02-02T04:50:54.919Z,22.74
2024-02-02T04:51:54.878Z,22.70
2024-02-02T04:52:56.441Z,22.70
2024-02-02T04:53:54.906Z,22.71
2024-02-02T04:54:54.905Z,22.71
2024-02-02T04:55:56.182Z,22.73
2024-02-02T04:56:54.947Z,22.70
2024-02-02T04:57:54.867Z,22.73
2024-02-02T04:58:54.844Z,22.73
2024-02-02T04:59:54.865Z,22.73
2024-02-02T05:00:54.890Z,22.73
2024-02-02T05:01:54.923Z,22.71
2024-02-02T05:02:54.893Z,22.68
2024-02-02T05:03:54.950Z,22.70
2024-02-02T05:04:54.860Z,22.73
2024-02-02T05:05:54.867Z,22.71
2024-02-02T05:06:54.862Z,22.71
2024-02-02T05:07:54.932Z,22.70
2024-02-02T05:08:54.905Z,22.70
2024-02-02T05:09:54.874Z,22.70
2024-02-02T05:10:54.876Z,22.71
2024-02-02T05:11:54.920Z,22.70
2024-02-02T05:12:54.863Z,22.73
2024-02-02T05:13:54.855Z,22.70
2024-02-02T05:14:54.894Z,22.68
2024-02-02T05:15:54.872Z,22.68
2024-02-02T05:16:54.881Z,22.70
2024-02-02T05:17:55.061Z,22.70
2024-02-02T05:18:55.035Z,22.68
2024-02-02T05:19:54.893Z,22.67
2024-02-02T05:20:54.887Z,22.67
2024-02-02T05:21:54.897Z,22.67
2024-02-02T05:22:54.889Z,22.70
2024-02-02T05:23:58.037Z,22.67
2024-02-02T05:24:55.935Z,22.70
2024-02-02T05:25:54.889Z,22.70
2024-02-02T05:26:54.891Z,22.67
2024-02-02T05:27:54.923Z,22.67
2024-02-02T05:28:54.906Z,22.67
2024-02-02T05:29:54.953Z,22.64
2024-02-02T05:30:54.942Z,22.64
2024-02-02T05:31:54.935Z,22.67
2024-02-02T05:32:54.961Z,22.66
2024-02-02T05:33:54.980Z,22.66
2024-02-02T05:34:54.973Z,22.64
2024-02-02T05:35:54.991Z,22.66
2024-02-02T05:36:54.920Z,22.66
2024-02-02T05:37:54.940Z,22.64
2024-02-02T05:38:54.971Z,22.64
2024-02-02T05:39:54.922Z,22.67
2024-02-02T05:40:54.904Z,22.63
2024-02-02T05:41:54.931Z,22.64
2024-02-02T05:42:54.928Z,22.63
2024-02-02T05:43:54.912Z,22.67
2024-02-02T05:44:55.056Z,22.67
2024-02-02T05:45:54.908Z,22.67
2024-02-02T05:46:54.932Z,22.63
2024-02-02T05:47:55.027Z,22.67
2024-02-02T05:48:55.026Z,22.64
2024-02-02T05:49:54.949Z,22.66
2024-02-02T05:50:55.028Z,22.64
2024-02-02T05:51:54.994Z,22.66
2024-02-02T05:52:54.924Z,22.66
2024-02-02T05:53:54.927Z,22.67
2024-02-02T05:54:54.948Z,22.67
2024-02-02T05:55:54.971Z,22.66
2024-02-02T05:56:54.991Z,22.68
2024-02-02T05:57:54.991Z,22.67
2024-02-02T05:58:55.007Z,22.67
2024-02-02T05:59:55.026Z,22.67
2024-02-02T06:00:55.044Z,22.70
2024-02-02T06:01:55.056Z,22.68
2024-02-02T06:02:55.064Z,22.67
2024-02-02T06:03:55.244Z,22.68
2024-02-02T06:04:55.125Z,22.71
2024-02-02T06:05:55.192Z,22.71
2024-02-02T06:06:55.362Z,22.70
2024-02-02T06:07:55.115Z,22.70
2024-02-02T06:08:58.053Z,22.71
2024-02-02T06:09:56.117Z,22.70
2024-02-02T06:10:55.119Z,22.70
2024-02-02T06:11:55.241Z,22.71
2024-02-02T06:12:55.175Z,22.71
2024-02-02T06:13:55.156Z,22.73
2024-02-02T06:14:55.177Z,22.70
2024-02-02T06:15:55.165Z,22.71
2024-02-02T06:16:55.153Z,22.73
2024-02-02T06:17:55.216Z,22.73
2024-02-02T06:18:55.409Z,22.71
2024-02-02T06:19:55.264Z,22.71
2024-02-02T06:20:55.185Z,22.71
2024-02-02T06:21:55.183Z,22.71
2024-02-02T06:22:55.170Z,22.73
2024-02-02T06:23:55.184Z,22.74
2024-02-02T06:24:55.142Z,22.71
2024-02-02T06:25:55.198Z,22.73
2024-02-02T06:26:55.196Z,22.73
2024-02-02T06:27:55.186Z,22.70
2024-02-02T06:28:55.178Z,22.71
2024-02-02T06:29:55.268Z,22.73
2024-02-02T06:30:55.175Z,22.70
2024-02-02T06:31:55.166Z,22.71
2024-02-02T06:32:55.292Z,22.73
2024-02-02T06:33:55.234Z,22.71
2024-02-02T06:34:55.222Z,22.73
2024-02-02T06:35:55.212Z,22.71
2024-02-02T06:36:55.163Z,22.73
2024-02-02T06:37:55.163Z,22.71
2024-02-02T06:38:55.187Z,22.73
2024-02-02T06:39:55.148Z,22.73
2024-02-02T06:40:55.195Z,22.71
2024-02-02T06:41:55.226Z,22.74
2024-02-02T06:42:55.155Z,22.71
2024-02-02T06:43:55.191Z,22.71
2024-02-02T06:44:55.176Z,22.73
2024-02-02T06:45:55.260Z,22.73
2024-02-02T06:46:55.211Z,22.71
2024-02-02T06:47:55.300Z,22.75
2024-02-02T06:48:55.327Z,22.75
2024-02-02T06:49:55.348Z,22.77
2024-02-02T06:50:55.287Z,22.77
2024-02-02T06:51:55.276Z,22.80
2024-02-02T06:52:55.281Z,22.81
2024-02-02T06:53:55.332Z,22.83
2024-02-02T06:54:55.328Z,22.89
2024-02-02T06:55:55.373Z,22.89
2024-02-02T06:56:55.376Z,22.90
2024-02-02T06:57:55.346Z,22.94
2024-02-02T06:58:55.357Z,23.00
2024-02-02T06:59:55.410Z,23.01
2024-02-02T07:00:55.635Z,23.04
2024-02-02T07:01:55.495Z,23.10
2024-02-02T07:02:55.640Z,23.11
2024-02-02T07:03:55.761Z,23.17
2024-02-02T07:04:55.713Z,23.17
2024-02-02T07:05:55.911Z,23.21
2024-02-02T07:06:55.951Z,23.22
2024-02-02T07:07:55.906Z,23.29
2024-02-02T07:08:56.078Z,23.28
2024-02-02T07:09:56.049Z,23.28
2024-02-02T07:10:56.090Z,23.37
2024-02-02T07:11:56.145Z,23.40
2024-02-02T07:12:56.142Z,23.41
2024-02-02T07:13:56.138Z,23.41
2024-02-02T07:14:56.257Z,23.46
2024-02-02T07:15:56.241Z,23.44
2024-02-02T07:16:56.292Z,23.49
2024-02-02T07:17:56.407Z,23.52
2024-02-02T07:18:56.393Z,23.49
2024-02-02T07:19:56.452Z,23.54
2024-02-02T07:20:56.415Z,23.55
2024-02-02T07:21:56.418Z,23.54
2024-02-02T07:22:56.452Z,23.58
2024-02-02T07:23:56.594Z,23.58
2024-02-02T07:24:56.532Z,23.58
2024-02-02T07:25:56.559Z,23.59
2024-02-02T07:26:56.623Z,23.65
2024-02-02T07:27:56.662Z,23.66
2024-02-02T07:28:56.692Z,23.66
2024-02-02T07:29:56.714Z,23.68
2024-02-02T07:30:56.736Z,23.70
2024-02-02T07:31:56.776Z,23.70
2024-02-02T07:32:56.913Z,23.75
2024-02-02T07:33:56.928Z,23.75
2024-02-02T07:34:59.175Z,23.77
2024-02-02T07:35:56.964Z,23.76
2024-02-02T07:36:56.876Z,23.79
2024-02-02T07:37:56.833Z,23.80
2024-02-02T07:38:57.208Z,23.80
2024-02-02T07:39:56.840Z,23.83
2024-02-02T07:40:56.864Z,23.79
2024-02-02T07:41:56.885Z,23.83
2024-02-02T07:42:56.894Z,23.85
2024-02-02T07:43:56.858Z,23.86
2024-02-02T07:44:56.941Z,23.82
2024-02-02T07:45:56.886Z,23.85
2024-02-02T07:46:56.867Z,23.86
2024-02-02T07:47:57.141Z,23.87
2024-02-02T07:48:57.173Z,23.86
2024-02-02T07:49:56.859Z,23.83
2024-02-02T07:50:56.878Z,23.87
2024-02-02T07:51:56.882Z,23.85
2024-02-02T07:52:56.952Z,23.90
2024-02-02T07:53:56.929Z,23.89
2024-02-02T07:54:56.850Z,23.86
2024-02-02T07:55:56.865Z,23.89
2024-02-02T07:56:56.948Z,23.86
2024-02-02T07:57:56.852Z,23.82
2024-02-02T07:58:56.890Z,23.83
2024-02-02T07:59:56.909Z,23.80
2024-02-02T08:00:56.958Z,23.83
2024-02-02T08:01:56.865Z,23.87
2024-02-02T08:02:57.006Z,23.92
2024-02-02T08:03:56.987Z,23.99
2024-02-02T08:04:57.062Z,24.05
2024-02-02T08:05:57.150Z,24.09
2024-02-02T08:06:57.004Z,24.10
2024-02-02T08:07:56.907Z,24.13
2024-02-02T08:08:56.900Z,24.10
2024-02-02T08:09:56.906Z,24.19
2024-02-02T08:10:56.881Z,24.24
2024-02-02T08:11:56.910Z,24.36
2024-02-02T08:12:56.928Z,24.43
2024-02-02T08:13:56.894Z,24.48
2024-02-02T08:14:56.896Z,24.56
2024-02-02T08:15:56.876Z,24.61
2024-02-02T08:16:56.890Z,24.67
2024-02-02T08:17:56.949Z,24.70
2024-02-02T08:18:57.023Z,24.72
2024-02-02T08:19:57.036Z,24.78
2024-02-02T08:20:56.923Z,24.82
2024-02-02T08:21:56.879Z,24.87
2024-02-02T08:22:56.927Z,24.87
2024-02-02T08:23:56.950Z,24.91
2024-02-02T08:24:56.885Z,24.88
2024-02-02T08:25:56.966Z,24.89
2024-02-02T08:26:56.970Z,24.91
2024-02-02T08:27:56.914Z,24.87
2024-02-02T08:28:56.910Z,24.85
2024-02-02T08:29:56.931Z,24.87
2024-02-02T08:30:56.913Z,24.79
2024-02-02T08:31:56.925Z,24.85
2024-02-02T08:32:57.214Z,24.87
2024-02-02T08:33:57.030Z,24.87
2024-02-02T08:34:56.919Z,24.91
2024-02-02T08:35:56.966Z,24.94
2024-02-02T08:36:56.910Z,24.95
2024-02-02T08:37:56.929Z,24.94
2024-02-02T08:38:56.984Z,24.97
2024-02-02T08:39:56.948Z,24.98
2024-02-02T08:40:56.945Z,24.97
2024-02-02T08:41:56.999Z,24.92
2024-02-02T08:42:56.952Z,24.98
2024-02-02T08:43:56.936Z,24.92
2024-02-02T08:44:57.016Z,24.95
2024-02-02T08:45:57.040Z,24.81
2024-02-02T08:46:56.930Z,24.77
2024-02-02T08:47:57.122Z,24.67
2024-02-02T08:48:57.114Z,24.54
2024-02-02T08:49:57.520Z,24.46
2024-02-02T08:50:57.087Z,24.38
2024-02-02T08:51:57.076Z,24.33
2024-02-02T08:52:57.078Z,24.33
2024-02-02T08:53:57.113Z,24.33
2024-02-02T08:54:57.134Z,24.31
2024-02-02T08:55:57.184Z,24.31
2024-02-02T08:56:57.138Z,24.33
2024-02-02T08:57:57.144Z,24.36
2024-02-02T08:58:57.179Z,24.36
2024-02-02T08:59:57.196Z,24.36
2024-02-02T09:00:57.314Z,24.36
2024-02-02T09:01:57.216Z,24.37
2024-02-02T09:02:59.293Z,24.43
2024-02-02T09:03:57.354Z,24.44
2024-02-02T09:04:57.285Z,24.41
2024-02-02T09:05:57.443Z,24.47
2024-02-02T09:06:57.427Z,24.48
2024-02-02T09:07:57.294Z,24.51
2024-02-02T09:08:57.318Z,24.56
2024-02-02T09:09:57.472Z,24.56
2024-02-02T09:10:57.322Z,24.60
2024-02-02T09:11:57.334Z,24.61
2024-02-02T09:12:57.323Z,24.58
2024-02-02T09:13:57.324Z,24.60
2024-02-02T09:14:57.336Z,24.56
2024-02-02T09:15:57.285Z,24.53
2024-02-02T09:16:57.302Z,24.56
2024-02-02T09:17:57.437Z,24.54
2024-02-02T09:19:57.416Z,24.56
2024-02-02T09:20:57.376Z,24.53
2024-02-02T09:21:57.314Z,24.53
2024-02-02T09:22:57.304Z,24.57
2024-02-02T09:23:57.337Z,24.54
2024-02-02T09:24:57.337Z,24.56
2024-02-02T09:25:57.326Z,24.58
2024-02-02T09:26:57.410Z,24.58
2024-02-02T09:27:57.346Z,24.60
2024-02-02T09:28:57.335Z,24.61
2024-02-02T09:29:57.334Z,24.58
2024-02-02T09:30:57.306Z,24.60
2024-02-02T09:31:57.324Z,24.60
2024-02-02T09:32:57.391Z,24.60
2024-02-02T09:33:57.491Z,24.60
2024-02-02T09:34:57.339Z,24.61
2024-02-02T09:35:57.366Z,24.58
2024-02-02T09:36:57.333Z,24.65
2024-02-02T09:37:57.340Z,24.70
2024-02-02T09:38:57.503Z,24.72
2024-02-02T09:39:57.358Z,24.72
2024-02-02T09:40:57.390Z,24.74
2024-02-02T09:41:57.525Z,24.74
2024-02-02T09:42:59.158Z,24.74
2024-02-02T09:43:57.612Z,24.77
2024-02-02T09:44:57.536Z,24.75
2024-02-02T09:45:57.479Z,24.79
2024-02-02T09:46:57.493Z,24.79
2024-02-02T09:47:57.578Z,24.79
2024-02-02T09:48:57.563Z,24.77
2024-02-02T09:49:57.581Z,24.79
2024-02-02T09:50:57.524Z,24.81
2024-02-02T09:51:57.492Z,24.78
2024-02-02T09:52:57.507Z,24.78
2024-02-02T09:53:57.549Z,24.74
2024-02-02T09:54:57.463Z,24.74
2024-02-02T09:55:57.462Z,24.77
2024-02-02T09:56:57.638Z,24.81
2024-02-02T09:57:57.482Z,24.79
2024-02-02T09:58:57.493Z,24.82
2024-02-02T09:59:57.466Z,24.87
2024-02-02T10:00:57.569Z,24.87
2024-02-02T10:01:57.488Z,24.89
2024-02-02T10:02:57.480Z,24.89
2024-02-02T10:03:57.604Z,24.89
2024-02-02T10:04:57.492Z,24.91
2024-02-02T10:05:57.556Z,24.92
2024-02-02T10:06:57.575Z,24.95
2024-02-02T10:07:57.510Z,24.97
2024-02-02T10:08:57.544Z,24.92
2024-02-02T10:09:57.522Z,24.95
2024-02-02T10:10:57.518Z,24.97
2024-02-02T10:11:57.526Z,25.01
2024-02-02T10:12:57.529Z,25.02
2024-02-02T10:13:57.553Z,24.97
2024-02-02T10:14:57.528Z,25.01
2024-02-02T10:15:57.504Z,25.02
2024-02-02T10:16:57.506Z,25.05
2024-02-02T10:17:57.628Z,25.05
2024-02-02T10:18:59.455Z,25.05
2024-02-02T10:19:57.497Z,25.05
2024-02-02T10:20:57.566Z,25.04
2024-02-02T10:21:57.522Z,25.07
2024-02-02T10:22:57.522Z,25.07
2024-02-02T10:24:02.270Z,25.05
2024-02-02T10:24:58.702Z,25.07
2024-02-02T10:25:57.530Z,25.05
2024-02-02T10:26:57.580Z,25.04
2024-02-02T10:27:57.546Z,25.07
2024-02-02T10:28:57.530Z,25.11
2024-02-02T10:29:57.583Z,25.08
2024-02-02T10:30:57.574Z,25.09
2024-02-02T10:31:57.576Z,25.08
2024-02-02T10:32:57.566Z,25.09
2024-02-02T10:33:57.648Z,25.14
2024-02-02T10:34:57.545Z,25.11
2024-02-02T10:35:57.574Z,25.09
2024-02-02T10:36:57.512Z,25.14
2024-02-02T10:37:57.516Z,25.16
2024-02-02T10:38:57.595Z,25.14
2024-02-02T10:39:57.540Z,25.16
2024-02-02T10:40:57.555Z,25.12
2024-02-02T10:41:57.606Z,25.16
2024-02-02T10:42:57.560Z,25.18
2024-02-02T10:43:57.566Z,25.22
2024-02-02T10:44:57.598Z,25.23
2024-02-02T10:45:57.559Z,25.19
2024-02-02T10:46:57.554Z,25.19
2024-02-02T10:47:57.709Z,25.15
2024-02-02T10:48:57.680Z,25.15
2024-02-02T10:49:57.755Z,25.15
2024-02-02T10:50:57.668Z,25.09
2024-02-02T10:51:57.645Z,25.07
2024-02-02T10:52:57.720Z,24.99
2024-02-02T10:53:57.819Z,24.94
2024-02-02T10:54:57.827Z,24.88
2024-02-02T10:55:57.985Z,24.84
2024-02-02T10:56:57.991Z,24.82
2024-02-02T10:57:58.024Z,24.78
2024-02-02T10:58:58.115Z,24.77
2024-02-02T10:59:58.183Z,24.72
2024-02-02T11:00:58.270Z,24.71
2024-02-02T11:01:58.292Z,24.68
2024-02-02T11:02:58.474Z,24.71
2024-02-02T11:03:58.573Z,24.72
2024-02-02T11:04:58.475Z,24.77
2024-02-02T11:05:58.624Z,24.78
2024-02-02T11:06:58.865Z,24.84
2024-02-02T11:07:58.725Z,24.85
2024-02-02T11:08:58.888Z,24.88
2024-02-02T11:09:58.882Z,24.97
2024-02-02T11:10:58.800Z,24.98
2024-02-02T11:11:59.031Z,25.01
2024-02-02T11:12:58.910Z,25.02
2024-02-02T11:13:58.858Z,25.08
2024-02-02T11:14:58.960Z,25.05
2024-02-02T11:15:58.936Z,25.08
2024-02-02T11:16:58.952Z,25.14
2024-02-02T11:17:59.126Z,25.16
2024-02-02T11:18:59.253Z,25.23
2024-02-02T11:19:59.069Z,25.23
2024-02-02T11:20:59.094Z,25.23
2024-02-02T11:21:59.076Z,25.25
2024-02-02T11:22:59.121Z,25.30
2024-02-02T11:23:59.203Z,25.32
2024-02-02T11:24:59.241Z,25.32
2024-02-02T11:25:59.176Z,25.33
2024-02-02T11:26:59.252Z,25.35
2024-02-02T11:27:59.289Z,25.36
2024-02-02T11:28:59.298Z,25.38
2024-02-02T11:29:59.387Z,25.35
2024-02-02T11:30:59.349Z,25.38
2024-02-02T11:31:59.355Z,25.39
2024-02-02T11:32:59.512Z,25.38
2024-02-02T11:33:59.527Z,25.40
2024-02-02T11:34:59.393Z,25.38
2024-02-02T11:35:59.472Z,25.38
2024-02-02T11:36:59.459Z,25.40
2024-02-02T11:37:59.479Z,25.39
2024-02-02T11:38:59.576Z,25.38
2024-02-02T11:39:59.531Z,25.36
2024-02-02T11:40:59.544Z,25.40
2024-02-02T11:41:59.582Z,25.39
2024-02-02T11:42:59.554Z,25.42
2024-02-02T11:43:59.574Z,25.43
2024-02-02T11:44:59.639Z,25.40
2024-02-02T11:45:59.601Z,25.42
2024-02-02T11:46:59.631Z,25.42
2024-02-02T11:47:59.764Z,25.38
2024-02-02T11:48:59.742Z,25.36
2024-02-02T11:49:59.761Z,25.36
2024-02-02T11:50:59.792Z,25.35
2024-02-02T11:52:02.769Z,25.33
2024-02-02T11:52:59.759Z,25.26
2024-02-02T11:53:59.810Z,25.28
2024-02-02T11:54:59.759Z,25.28
2024-02-02T11:55:59.764Z,25.25
2024-02-02T11:56:59.818Z,25.25
2024-02-02T11:57:59.750Z,25.22
2024-02-02T11:58:59.777Z,25.21
2024-02-02T11:59:59.799Z,25.16
2024-02-02T12:00:59.825Z,25.16
2024-02-02T12:01:59.825Z,25.15
2024-02-02T12:02:59.836Z,25.12
2024-02-02T12:03:59.793Z,25.11
2024-02-02T12:04:59.795Z,25.11
2024-02-02T12:05:59.854Z,25.08
2024-02-02T12:06:59.819Z,25.05
2024-02-02T12:07:59.793Z,25.07
2024-02-02T12:08:59.821Z,25.05
2024-02-02T12:09:59.775Z,25.05
2024-02-02T12:10:59.769Z,25.05
2024-02-02T12:11:59.827Z,25.05
2024-02-02T12:12:59.801Z,25.02
2024-02-02T12:13:59.769Z,25.04
2024-02-02T12:14:59.784Z,25.04
2024-02-02T12:15:59.879Z,25.07
2024-02-02T12:16:59.791Z,25.04
2024-02-02T12:18:03.690Z,25.02
2024-02-02T12:18:59.931Z,25.08
2024-02-02T12:20:00.111Z,25.07
2024-02-02T12:20:59.849Z,25.07
2024-02-02T12:21:59.785Z,25.07
2024-02-02T12:23:00.839Z,25.05
2024-02-02T12:23:59.876Z,25.07
2024-02-02T12:25:00.815Z,25.07
2024-02-02T12:25:59.821Z,25.08
2024-02-02T12:26:59.860Z,25.07
2024-02-02T12:27:59.792Z,25.07
2024-02-02T12:28:59.799Z,25.07
2024-02-02T12:29:59.958Z,25.07
2024-02-02T12:30:59.835Z,25.08
2024-02-02T12:31:59.822Z,25.08
2024-02-02T12:33:00.253Z,25.08
2024-02-02T12:34:00.001Z,25.07
2024-02-02T12:35:00.041Z,25.08
2024-02-02T12:36:06.889Z,25.07
2024-02-02T12:37:00.930Z,25.04
2024-02-02T12:37:59.840Z,25.04
2024-02-02T12:38:59.914Z,24.98
2024-02-02T12:39:59.849Z,24.98
2024-02-02T12:40:59.829Z,24.97
2024-02-02T12:41:59.989Z,24.92
2024-02-02T12:42:59.840Z,24.91
2024-02-02T12:43:59.856Z,24.91
2024-02-02T12:44:59.901Z,24.88
2024-02-02T12:45:59.849Z,24.84
2024-02-02T12:46:59.842Z,24.79
2024-02-02T12:48:00.077Z,24.82
2024-02-02T12:49:00.128Z,24.78
2024-02-02T12:50:00.095Z,24.78
2024-02-02T12:50:59.958Z,24.75
2024-02-02T12:51:59.965Z,24.72
2024-02-02T12:53:00.012Z,24.72
2024-02-02T12:54:00.141Z,24.71
2024-02-02T12:55:00.244Z,24.68